Mooretown, Canada
Current Conditions -  °F | °C
As of 3:38 PM on Sunday 25 Jan 2015 (Local Time) from KPHN Reporting Station
Clear Clear  
Wind Chill:   Ceiling: Unl
Heat Index: 19°   Visibility: 10mi
Dew Point: 10°   Wind: 13mph
Humidity: 68%   Direction: 20°NNE
Pressure: 29.95"   Gusts: NA
Location:  42.84°N, 82.47°W
Report Text: KPHN 252038Z AUTO 02011KT 10SM CLR M07/M12 A2995 RMK AO2
Loading
Personal Weather Stations






























Interactive Weather Map New forecast layout! Learn more

10-Day Weather Forecast

Advertisements
Track Severe Weather on mobile